Miedwie — C6XP5 — position and weather

sailwx.info

Track history (hours):
 
Tides and Currents Weather Stations Pressure Air Temp Water Temp Dewpoint Dewpoint Depression Visibility Wind Speed Wind Dir Waves Ship Positions

Miedwie

Last reported at 2014-Nov-26 02:33 UTC. Time now 2014-Dec-22 22:44 UTC.
Position N 46°31' W 072°13'.
Warning: this ship's position is 26 days out of date.

Length 190 m; draft 9.3 m.

Type: Cargo ship. MMSI: 311018300.

Date/timePositionNaut miles runAvg speedWind from/ knotsBaromVisibWave heightAir tempDewpointWater temp
2014-Nov-26 02:33N 46°31' W 072°13'1313.0
2014-Nov-26 01:33N 46°23' W 072°28'1010.4
2014-Nov-26 00:33N 46°16' W 072°40'2711.4
2014-Nov-25 22:13N 45°60' W 073°11'812.2
2014-Nov-25 21:34N 45°53' W 073°15'1312.7
2014-Nov-25 20:33N 45°42' W 073°26'10 9.1
2014-Nov-25 19:27N 45°33' W 073°31'0 0.3
2014-Nov-25 18:30N 45°33' W 073°31'0 0.0
2014-Nov-25 17:33N 45°33' W 073°31'0 0.0
2014-Nov-25 16:33N 45°33' W 073°31'0 0.0
2014-Nov-25 15:33N 45°33' W 073°31'0 0.0
2014-Nov-25 14:30N 45°33' W 073°31'0 0.0
2014-Nov-25 13:33N 45°33' W 073°31'0 0.0
2014-Nov-25 12:33N 45°33' W 073°31'0 0.0
2014-Nov-25 11:33N 45°33' W 073°31'0 0.0
2014-Nov-25 10:33N 45°33' W 073°31'0 0.0
2014-Nov-25 09:33N 45°33' W 073°31'0 0.0
2014-Nov-25 08:33N 45°33' W 073°31'0 0.0
2014-Nov-25 07:33N 45°33' W 073°31'0 0.0
2014-Nov-25 06:33N 45°33' W 073°31'0 0.0
2014-Nov-25 05:33N 45°33' W 073°31'0 0.0
2014-Nov-25 04:33N 45°33' W 073°31'0 0.0
2014-Nov-25 03:33N 45°33' W 073°31'0 0.0
2014-Nov-25 02:30N 45°33' W 073°31'0 0.0
2014-Nov-25 01:33N 45°33' W 073°31'0 0.5
2014-Nov-25 00:34N 45°34' W 073°31'4 4.1
2014-Nov-24 23:33N 45°30' W 073°31'2 1.7
2014-Nov-24 22:33N 45°28' W 073°30'4 4.4
2014-Nov-24 21:33N 45°24' W 073°34'2 1.7
2014-Nov-24 20:33N 45°24' W 073°36'5 5.2
2014-Nov-24 19:33N 45°24' W 073°44'9 9.3
2014-Nov-24 18:34N 45°19' W 073°55'1 1.2
2014-Nov-24 17:33N 45°18' W 073°56'2 1.7
2014-Nov-24 16:33N 45°17' W 073°57'6 5.6
2014-Nov-24 15:32N 45°13' W 074°03'9 9.3
2014-Nov-24 14:34N 45°13' W 074°16'1210.6
2014-Nov-24 13:28N 45°06' W 074°29'59 3.4
2014-Nov-23 20:06N 44°36' W 075°40'611.2
2014-Nov-23 19:33N 44°31' W 075°46'3838.6
2014-Nov-23 18:34N 44°05' W 076°25'3 2.7
2014-Nov-23 17:34N 44°02' W 076°27'1 1.4
2014-Nov-23 16:34N 44°04' W 076°26'1 1.3
2014-Nov-23 15:34N 44°03' W 076°27'  
2014-Nov-20 23:33N 42°44' W 079°47'1212.5
2014-Nov-20 22:33N 42°42' W 080°04'5 4.6
2014-Nov-20 21:30N 42°40' W 080°10'0 0.0
2014-Nov-20 20:30N 42°40' W 080°10'0 0.0
2014-Nov-20 19:30N 42°40' W 080°10'0 0.0
2014-Nov-20 18:30N 42°40' W 080°10'0 0.0
2014-Nov-20 17:30N 42°40' W 080°10'0 0.0
2014-Nov-20 16:30N 42°40' W 080°10'0 0.0
2014-Nov-20 15:33N 42°40' W 080°10'0 0.0
2014-Nov-20 14:33N 42°40' W 080°10'0 0.0
2014-Nov-20 13:33N 42°40' W 080°10'0 0.0
2014-Nov-20 12:33N 42°40' W 080°10'0 0.0
2014-Nov-20 11:33N 42°40' W 080°10'0 0.0
2014-Nov-20 10:33N 42°40' W 080°10'0 0.0
2014-Nov-20 09:33N 42°40' W 080°10'0 0.0
2014-Nov-20 08:33N 42°40' W 080°10'0 0.0
2014-Nov-20 07:33N 42°40' W 080°10'0 0.0
2014-Nov-20 06:33N 42°41' W 080°10'0 0.0
2014-Nov-20 05:33N 42°40' W 080°10'0 0.0
2014-Nov-20 04:33N 42°40' W 080°10'0 0.0
2014-Nov-20 03:33N 42°40' W 080°10'0 0.0
2014-Nov-20 02:27N 42°41' W 080°10'0 0.1
2014-Nov-20 01:27N 42°41' W 080°10'0 0.0
2014-Nov-20 00:33N 42°41' W 080°10'0 0.0
2014-Nov-19 23:33N 42°41' W 080°11'0 0.0
2014-Nov-19 22:27N 42°41' W 080°11'0 0.0
2014-Nov-19 21:27N 42°41' W 080°11'0 0.0
2014-Nov-19 20:33N 42°41' W 080°11'0 0.0
2014-Nov-19 19:12N 42°41' W 080°11'0 0.0
2014-Nov-19 18:30N 42°41' W 080°11'0 0.0
2014-Nov-19 17:30N 42°41' W 080°11'0 0.0
2014-Nov-19 16:30N 42°41' W 080°11'0 0.0
2014-Nov-19 15:24N 42°41' W 080°11'0 0.0
2014-Nov-19 14:30N 42°41' W 080°11'0 0.0
2014-Nov-19 13:18N 42°41' W 080°10'0 0.1
2014-Nov-19 12:24N 42°40' W 080°10'0 0.0
2014-Nov-19 11:30N 42°40' W 080°10'0 0.0
2014-Nov-19 10:24N 42°40' W 080°10'0 0.0
2014-Nov-19 09:30N 42°40' W 080°10'0 0.0
2014-Nov-19 08:30N 42°40' W 080°10'0 0.0
2014-Nov-19 07:30N 42°40' W 080°10'0 0.0
2014-Nov-19 06:30N 42°40' W 080°10'0 0.0
2014-Nov-19 05:33N 42°40' W 080°10'0 0.0
2014-Nov-19 04:33N 42°40' W 080°10'0 0.0
2014-Nov-19 03:33N 42°40' W 080°10'0 0.0
2014-Nov-19 02:33N 42°40' W 080°10'0 0.0
2014-Nov-19 01:33N 42°40' W 080°10'0 0.0
2014-Nov-19 00:33N 42°40' W 080°10'0 0.0
2014-Nov-18 23:33N 42°40' W 080°10'0 0.0
2014-Nov-18 22:33N 42°40' W 080°10'0 0.0
2014-Nov-18 21:33N 42°40' W 080°10'0 0.0
2014-Nov-18 20:33N 42°40' W 080°10'0 0.0
2014-Nov-18 19:33N 42°40' W 080°10'0 0.0
2014-Nov-18 18:33N 42°40' W 080°10'0 0.0
2014-Nov-18 17:33N 42°40' W 080°10'3 2.6
2014-Nov-18 16:33N 42°40' W 080°07'4 3.9
2014-Nov-18 15:33N 42°37' W 080°03'5 5.2
2014-Nov-18 14:32N 42°32' W 080°01'9 9.5
2014-Nov-18 13:33N 42°26' W 080°11'  
Track history (hours):
 
Tides and Currents Weather Stations Pressure Air Temp Water Temp Dewpoint Dewpoint Depression Visibility Wind Speed Wind Dir Waves Ship Positions

Miedwie

Last reported at 2014-Nov-26 02:33 UTC. Time now 2014-Dec-22 22:44 UTC.
Position N 46°31' W 072°13'.
Warning: this ship's position is 26 days out of date.

Length 190 m; draft 9.3 m.

Type: Cargo ship. MMSI: 311018300.

Date/timePositionNaut miles runAvg speedWind from/ knotsBaromVisibWave heightAir tempDewpointWater temp
2014-Nov-26 02:33N 46°31' W 072°13'1313.0
2014-Nov-26 01:33N 46°23' W 072°28'1010.4
2014-Nov-26 00:33N 46°16' W 072°40'2711.4
2014-Nov-25 22:13N 45°60' W 073°11'812.2
2014-Nov-25 21:34N 45°53' W 073°15'1312.7
2014-Nov-25 20:33N 45°42' W 073°26'10 9.1
2014-Nov-25 19:27N 45°33' W 073°31'0 0.3
2014-Nov-25 18:30N 45°33' W 073°31'0 0.0
2014-Nov-25 17:33N 45°33' W 073°31'0 0.0
2014-Nov-25 16:33N 45°33' W 073°31'0 0.0
2014-Nov-25 15:33N 45°33' W 073°31'0 0.0
2014-Nov-25 14:30N 45°33' W 073°31'0 0.0
2014-Nov-25 13:33N 45°33' W 073°31'0 0.0
2014-Nov-25 12:33N 45°33' W 073°31'0 0.0
2014-Nov-25 11:33N 45°33' W 073°31'0 0.0
2014-Nov-25 10:33N 45°33' W 073°31'0 0.0
2014-Nov-25 09:33N 45°33' W 073°31'0 0.0
2014-Nov-25 08:33N 45°33' W 073°31'0 0.0
2014-Nov-25 07:33N 45°33' W 073°31'0 0.0
2014-Nov-25 06:33N 45°33' W 073°31'0 0.0
2014-Nov-25 05:33N 45°33' W 073°31'0 0.0
2014-Nov-25 04:33N 45°33' W 073°31'0 0.0
2014-Nov-25 03:33N 45°33' W 073°31'0 0.0
2014-Nov-25 02:30N 45°33' W 073°31'0 0.0
2014-Nov-25 01:33N 45°33' W 073°31'0 0.5
2014-Nov-25 00:34N 45°34' W 073°31'4 4.1
2014-Nov-24 23:33N 45°30' W 073°31'2 1.7
2014-Nov-24 22:33N 45°28' W 073°30'4 4.4
2014-Nov-24 21:33N 45°24' W 073°34'2 1.7
2014-Nov-24 20:33N 45°24' W 073°36'5 5.2
2014-Nov-24 19:33N 45°24' W 073°44'9 9.3
2014-Nov-24 18:34N 45°19' W 073°55'1 1.2
2014-Nov-24 17:33N 45°18' W 073°56'2 1.7
2014-Nov-24 16:33N 45°17' W 073°57'6 5.6
2014-Nov-24 15:32N 45°13' W 074°03'9 9.3
2014-Nov-24 14:34N 45°13' W 074°16'1210.6
2014-Nov-24 13:28N 45°06' W 074°29'59 3.4
2014-Nov-23 20:06N 44°36' W 075°40'611.2
2014-Nov-23 19:33N 44°31' W 075°46'3838.6
2014-Nov-23 18:34N 44°05' W 076°25'3 2.7
2014-Nov-23 17:34N 44°02' W 076°27'1 1.4
2014-Nov-23 16:34N 44°04' W 076°26'1 1.3
2014-Nov-23 15:34N 44°03' W 076°27'  
2014-Nov-20 23:33N 42°44' W 079°47'1212.5
2014-Nov-20 22:33N 42°42' W 080°04'5 4.6
2014-Nov-20 21:30N 42°40' W 080°10'0 0.0
2014-Nov-20 20:30N 42°40' W 080°10'0 0.0
2014-Nov-20 19:30N 42°40' W 080°10'0 0.0
2014-Nov-20 18:30N 42°40' W 080°10'0 0.0
2014-Nov-20 17:30N 42°40' W 080°10'0 0.0
2014-Nov-20 16:30N 42°40' W 080°10'0 0.0
2014-Nov-20 15:33N 42°40' W 080°10'0 0.0
2014-Nov-20 14:33N 42°40' W 080°10'0 0.0
2014-Nov-20 13:33N 42°40' W 080°10'0 0.0
2014-Nov-20 12:33N 42°40' W 080°10'0 0.0
2014-Nov-20 11:33N 42°40' W 080°10'0 0.0
2014-Nov-20 10:33N 42°40' W 080°10'0 0.0
2014-Nov-20 09:33N 42°40' W 080°10'0 0.0
2014-Nov-20 08:33N 42°40' W 080°10'0 0.0
2014-Nov-20 07:33N 42°40' W 080°10'0 0.0
2014-Nov-20 06:33N 42°41' W 080°10'0 0.0
2014-Nov-20 05:33N 42°40' W 080°10'0 0.0
2014-Nov-20 04:33N 42°40' W 080°10'0 0.0
2014-Nov-20 03:33N 42°40' W 080°10'0 0.0
2014-Nov-20 02:27N 42°41' W 080°10'0 0.1
2014-Nov-20 01:27N 42°41' W 080°10'0 0.0
2014-Nov-20 00:33N 42°41' W 080°10'0 0.0
2014-Nov-19 23:33N 42°41' W 080°11'0 0.0
2014-Nov-19 22:27N 42°41' W 080°11'0 0.0
2014-Nov-19 21:27N 42°41' W 080°11'0 0.0
2014-Nov-19 20:33N 42°41' W 080°11'0 0.0
2014-Nov-19 19:12N 42°41' W 080°11'0 0.0
2014-Nov-19 18:30N 42°41' W 080°11'0 0.0
2014-Nov-19 17:30N 42°41' W 080°11'0 0.0
2014-Nov-19 16:30N 42°41' W 080°11'0 0.0
2014-Nov-19 15:24N 42°41' W 080°11'0 0.0
2014-Nov-19 14:30N 42°41' W 080°11'0 0.0
2014-Nov-19 13:18N 42°41' W 080°10'0 0.1
2014-Nov-19 12:24N 42°40' W 080°10'0 0.0
2014-Nov-19 11:30N 42°40' W 080°10'0 0.0
2014-Nov-19 10:24N 42°40' W 080°10'0 0.0
2014-Nov-19 09:30N 42°40' W 080°10'0 0.0
2014-Nov-19 08:30N 42°40' W 080°10'0 0.0
2014-Nov-19 07:30N 42°40' W 080°10'0 0.0
2014-Nov-19 06:30N 42°40' W 080°10'0 0.0
2014-Nov-19 05:33N 42°40' W 080°10'0 0.0
2014-Nov-19 04:33N 42°40' W 080°10'0 0.0
2014-Nov-19 03:33N 42°40' W 080°10'0 0.0
2014-Nov-19 02:33N 42°40' W 080°10'0 0.0
2014-Nov-19 01:33N 42°40' W 080°10'0 0.0
2014-Nov-19 00:33N 42°40' W 080°10'0 0.0
2014-Nov-18 23:33N 42°40' W 080°10'0 0.0
2014-Nov-18 22:33N 42°40' W 080°10'0 0.0
2014-Nov-18 21:33N 42°40' W 080°10'0 0.0
2014-Nov-18 20:33N 42°40' W 080°10'0 0.0
2014-Nov-18 19:33N 42°40' W 080°10'0 0.0
2014-Nov-18 18:33N 42°40' W 080°10'0 0.0
2014-Nov-18 17:33N 42°40' W 080°10'3 2.6
2014-Nov-18 16:33N 42°40' W 080°07'4 3.9
2014-Nov-18 15:33N 42°37' W 080°03'5 5.2
2014-Nov-18 14:32N 42°32' W 080°01'9 9.5
2014-Nov-18 13:33N 42°26' W 080°11'  

Dump ship's entire track history